Time;durP1;ratioP1;P1;durP2;ratioP2;P2;SDS_P1;SDS_P2;PMS_P1;PMS_P2;Temp;Humidity;BMP_temperature;BMP_pressure;BME280_temperature;BME280_humidity;BME280_pressure;Samples;Min_cycle;Max_cycle;Signal;HPM_P1;HPM_P2
2021/09/24 00:01:57;;;;;;;6.35;2.95;;;15.90;99.90;;;;;;5075257;28;20029;-71
2021/09/24 00:04:22;;;;;;;6.00;3.58;;;16.00;99.90;;;;;;5072701;28;20037;-70
2021/09/24 00:06:48;;;;;;;6.88;3.42;;;15.90;99.90;;;;;;5071785;28;20032;-71
2021/09/24 00:09:14;;;;;;;6.90;3.35;;;15.90;99.90;;;;;;5070934;28;20033;-70
2021/09/24 00:11:41;;;;;;;7.07;3.83;;;15.90;99.90;;;;;;5072688;28;20116;-69
2021/09/24 00:14:08;;;;;;;5.63;3.33;;;15.90;99.90;;;;;;5071402;28;20515;-69
2021/09/24 00:16:34;;;;;;;4.50;2.80;;;15.90;99.90;;;;;;5072294;28;20049;-69
2021/09/24 00:19:00;;;;;;;7.80;3.15;;;15.90;99.90;;;;;;5071261;28;20085;-69
2021/09/24 00:21:26;;;;;;;6.00;3.35;;;15.80;99.90;;;;;;5072294;28;20025;-70
2021/09/24 00:23:51;;;;;;;5.32;3.05;;;15.80;99.90;;;;;;5072649;28;20028;-69
2021/09/24 00:26:18;;;;;;;6.60;2.92;;;15.70;99.90;;;;;;5092493;28;20129;-69
2021/09/24 00:28:44;;;;;;;4.57;3.03;;;15.50;99.90;;;;;;5091670;28;20028;-70
2021/09/24 00:31:09;;;;;;;6.63;2.95;;;15.40;99.90;;;;;;5092533;28;20413;-69
2021/09/24 00:33:35;;;;;;;7.72;3.35;;;15.40;99.90;;;;;;5092746;28;20032;-70
2021/09/24 00:36:01;;;;;;;6.57;3.00;;;15.30;99.90;;;;;;5092633;28;20042;-70
2021/09/24 00:38:27;;;;;;;5.90;3.75;;;15.30;99.90;;;;;;5092306;28;20550;-70
2021/09/24 00:40:53;;;;;;;6.07;2.88;;;15.40;99.90;;;;;;5092227;28;20032;-69
2021/09/24 00:43:19;;;;;;;7.35;3.25;;;15.40;99.90;;;;;;5092668;28;20492;-70
2021/09/24 00:45:45;;;;;;;6.85;3.60;;;15.40;99.90;;;;;;5091390;28;20528;-69
2021/09/24 00:48:11;;;;;;;8.15;3.55;;;15.30;99.90;;;;;;5092579;28;20109;-69
2021/09/24 00:50:38;;;;;;;6.28;3.20;;;15.40;99.90;;;;;;5091098;28;20496;-70
2021/09/24 00:53:04;;;;;;;6.20;3.42;;;15.40;99.90;;;;;;5091080;28;20458;-70
2021/09/24 00:55:31;;;;;;;7.18;3.60;;;15.40;99.90;;;;;;5092123;28;20032;-70
2021/09/24 00:57:57;;;;;;;6.50;3.35;;;15.50;99.90;;;;;;5092195;28;20031;-71
2021/09/24 01:00:23;;;;;;;7.03;2.90;;;15.50;99.90;;;;;;5091074;28;20024;-70
2021/09/24 01:02:49;;;;;;;7.07;3.08;;;15.50;99.90;;;;;;5091047;28;20044;-71
2021/09/24 01:05:16;;;;;;;11.63;3.80;;;15.60;99.90;;;;;;5092206;28;20138;-70
2021/09/24 01:07:46;;;;;;;5.78;3.67;;;15.60;99.90;;;;;;5091048;28;20024;-70
2021/09/24 01:10:15;;;;;;;6.78;3.22;;;15.50;99.90;;;;;;5091940;28;20032;-71
2021/09/24 01:12:41;;;;;;;6.00;3.75;;;15.50;99.90;;;;;;5093157;28;20589;-71
2021/09/24 01:15:15;;;;;;;12.10;4.10;;;15.50;99.90;;;;;;5095009;28;20032;-70
2021/09/24 01:17:41;;;;;;;6.03;3.60;;;15.50;99.90;;;;;;5096042;28;20380;-70
2021/09/24 01:20:10;;;;;;;7.90;3.33;;;15.50;99.90;;;;;;5094615;28;20630;-70
2021/09/24 01:22:37;;;;;;;6.45;3.05;;;15.60;99.90;;;;;;5094890;28;20043;-70
2021/09/24 01:25:05;;;;;;;6.13;3.50;;;15.50;99.90;;;;;;5094746;28;20059;-70
2021/09/24 01:27:32;;;;;;;8.18;4.18;;;15.50;99.90;;;;;;5095941;28;20031;-70
2021/09/24 01:29:58;;;;;;;6.05;3.90;;;15.40;99.90;;;;;;5094582;28;20110;-70
2021/09/24 01:32:24;;;;;;;8.20;4.03;;;15.30;99.90;;;;;;5096071;28;20048;-69
2021/09/24 01:34:51;;;;;;;8.25;3.90;;;15.30;99.90;;;;;;5094474;28;20047;-70
2021/09/24 01:37:16;;;;;;;8.50;4.90;;;15.30;99.90;;;;;;5095710;28;20385;-70
2021/09/24 01:39:42;;;;;;;11.45;4.55;;;15.20;99.90;;;;;;5094699;28;20036;-70
2021/09/24 01:42:08;;;;;;;8.93;4.80;;;15.20;99.90;;;;;;5094383;28;20046;-70
2021/09/24 01:44:35;;;;;;;6.65;4.15;;;15.30;99.90;;;;;;5093790;28;20062;-70
2021/09/24 01:47:01;;;;;;;7.53;3.80;;;15.20;99.90;;;;;;5075473;28;20115;-70
2021/09/24 01:49:27;;;;;;;5.93;3.60;;;15.10;99.90;;;;;;5082347;28;20064;-70
2021/09/24 01:51:53;;;;;;;9.40;3.90;;;15.20;99.90;;;;;;5094121;28;20484;-70
2021/09/24 01:54:21;;;;;;;6.25;3.80;;;15.20;99.90;;;;;;5095794;28;20040;-70
2021/09/24 01:56:47;;;;;;;7.75;4.20;;;15.20;99.90;;;;;;5094458;28;20024;-69
2021/09/24 01:59:13;;;;;;;7.85;4.13;;;15.00;99.90;;;;;;5095355;28;20396;-71
2021/09/24 02:01:39;;;;;;;8.57;4.78;;;14.70;99.90;;;;;;5095168;28;20024;-70
2021/09/24 02:04:05;;;;;;;8.68;4.63;;;14.40;99.90;;;;;;5094948;28;20553;-71
2021/09/24 02:06:31;;;;;;;8.45;4.93;;;14.10;99.90;;;;;;5094152;28;20066;-71
2021/09/24 02:08:57;;;;;;;8.93;4.80;;;14.00;99.90;;;;;;5095441;28;20366;-71
2021/09/24 02:11:23;;;;;;;10.50;4.95;;;13.90;99.90;;;;;;5095205;28;20031;-71
2021/09/24 02:13:49;;;;;;;9.25;5.00;;;13.80;99.90;;;;;;5095483;28;20111;-71
2021/09/24 02:16:15;;;;;;;9.00;5.20;;;13.80;99.90;;;;;;5094051;28;20093;-71
2021/09/24 02:18:41;;;;;;;9.27;4.70;;;13.90;99.90;;;;;;5093732;28;20024;-69
2021/09/24 02:21:08;;;;;;;7.88;4.68;;;13.90;99.90;;;;;;5093545;28;20078;-69
2021/09/24 02:23:35;;;;;;;7.80;4.65;;;13.90;99.90;;;;;;5094804;28;20036;-70
2021/09/24 02:26:02;;;;;;;8.82;5.40;;;14.00;99.90;;;;;;5094875;28;20411;-70
2021/09/24 02:28:27;;;;;;;9.85;4.60;;;14.00;99.90;;;;;;5094769;28;20035;-70
2021/09/24 02:30:53;;;;;;;8.63;5.35;;;13.80;99.90;;;;;;5094726;28;20032;-71
2021/09/24 02:33:19;;;;;;;8.00;5.15;;;13.90;99.90;;;;;;5093522;28;20020;-71
2021/09/24 02:35:46;;;;;;;9.57;5.35;;;13.70;99.90;;;;;;5093392;28;20035;-72
2021/09/24 02:38:11;;;;;;;9.10;5.57;;;13.60;99.90;;;;;;5094758;28;20131;-71
2021/09/24 02:40:37;;;;;;;8.05;4.78;;;13.60;99.90;;;;;;5094753;28;20060;-71
2021/09/24 02:43:03;;;;;;;9.45;5.13;;;13.50;99.90;;;;;;5094556;28;20040;-71
2021/09/24 02:45:29;;;;;;;9.70;5.35;;;13.50;99.90;;;;;;5094683;28;20081;-71
2021/09/24 02:47:55;;;;;;;9.10;5.35;;;13.50;99.90;;;;;;5093000;28;20032;-71
2021/09/24 02:50:21;;;;;;;9.00;5.60;;;13.40;99.90;;;;;;5094776;28;20032;-71
2021/09/24 02:52:47;;;;;;;9.93;5.28;;;13.40;99.90;;;;;;5092942;28;20024;-71
2021/09/24 02:55:14;;;;;;;8.15;4.93;;;13.30;99.90;;;;;;5094378;28;20036;-71
2021/09/24 02:57:41;;;;;;;11.73;5.63;;;13.30;99.90;;;;;;5094152;28;20392;-71
2021/09/24 03:00:08;;;;;;;10.20;6.63;;;13.30;99.90;;;;;;5094220;28;20028;-71
2021/09/24 03:02:35;;;;;;;8.55;5.78;;;13.30;99.90;;;;;;5092656;28;20500;-71
2021/09/24 03:05:06;;;;;;;7.40;5.50;;;13.10;99.90;;;;;;5110129;28;20046;-71
2021/09/24 03:07:33;;;;;;;8.88;5.20;;;13.20;99.90;;;;;;5094097;28;20074;-71
2021/09/24 03:09:58;;;;;;;7.63;5.20;;;13.40;99.90;;;;;;5094318;28;20050;-71
2021/09/24 03:12:24;;;;;;;8.13;4.85;;;13.40;99.90;;;;;;5094212;28;20028;-70
2021/09/24 03:14:50;;;;;;;7.93;5.07;;;13.40;99.90;;;;;;5093534;28;20054;-70
2021/09/24 03:17:16;;;;;;;11.00;6.22;;;13.40;99.90;;;;;;5091834;28;20492;-71
2021/09/24 03:19:43;;;;;;;11.27;5.15;;;13.40;99.90;;;;;;5093671;28;20040;-70
2021/09/24 03:22:09;;;;;;;10.75;5.63;;;13.30;99.90;;;;;;5093637;28;20024;-70
2021/09/24 03:24:35;;;;;;;9.93;5.70;;;13.30;99.90;;;;;;5092651;28;20369;-70
2021/09/24 03:27:01;;;;;;;11.85;5.93;;;13.30;99.90;;;;;;5093803;28;20032;-70
2021/09/24 03:29:28;;;;;;;11.00;5.80;;;13.20;99.90;;;;;;5093739;28;20028;-70
2021/09/24 03:31:54;;;;;;;10.05;6.28;;;13.20;99.90;;;;;;5093786;28;20032;-70
2021/09/24 03:34:20;;;;;;;8.80;5.57;;;13.30;99.90;;;;;;5092498;28;20051;-71
2021/09/24 03:36:47;;;;;;;9.00;5.32;;;13.40;99.90;;;;;;5092842;28;20060;-71
2021/09/24 03:39:13;;;;;;;9.27;5.88;;;13.50;99.90;;;;;;5093617;28;20100;-70
2021/09/24 03:41:44;;;;;;;9.30;5.40;;;13.60;99.90;;;;;;5092248;28;20035;-70
2021/09/24 03:44:10;;;;;;;10.30;5.55;;;13.60;99.90;;;;;;5093282;28;20048;-70
2021/09/24 03:46:37;;;;;;;8.88;5.47;;;13.70;99.90;;;;;;5093243;28;20060;-70
2021/09/24 03:49:04;;;;;;;10.15;5.20;;;13.70;99.90;;;;;;5084799;28;20035;-71
2021/09/24 03:51:30;;;;;;;10.38;6.10;;;13.60;99.90;;;;;;5093188;28;20039;-71
2021/09/24 03:53:56;;;;;;;15.88;6.53;;;13.50;99.90;;;;;;5093148;28;20024;-70
2021/09/24 03:56:23;;;;;;;11.02;6.75;;;13.50;99.90;;;;;;5092997;28;20439;-72
2021/09/24 03:58:49;;;;;;;9.40;6.05;;;13.40;99.90;;;;;;5091781;28;20043;-69
2021/09/24 04:01:17;;;;;;;9.50;6.05;;;13.40;99.90;;;;;;5088400;28;20054;-72
2021/09/24 04:03:43;;;;;;;11.85;6.80;;;13.40;99.90;;;;;;5084361;28;20044;-72
2021/09/24 04:06:10;;;;;;;10.15;6.68;;;13.30;99.90;;;;;;5084635;28;20043;-70
2021/09/24 04:08:36;;;;;;;12.10;6.97;;;13.30;99.90;;;;;;5080309;28;20539;-72
2021/09/24 04:11:03;;;;;;;9.25;6.25;;;13.20;99.90;;;;;;5092857;28;20481;-70
2021/09/24 04:13:29;;;;;;;11.93;6.68;;;13.20;99.90;;;;;;5091958;28;20112;-73
2021/09/24 04:15:55;;;;;;;11.20;5.97;;;13.20;99.90;;;;;;5092029;28;20099;-75
2021/09/24 04:18:20;;;;;;;9.93;6.07;;;13.20;99.90;;;;;;5087917;28;20051;-72
2021/09/24 04:20:47;;;;;;;10.90;6.60;;;13.20;99.90;;;;;;5079799;28;20035;-70
2021/09/24 04:23:14;;;;;;;12.23;6.28;;;13.30;99.90;;;;;;5082897;28;20060;-70
2021/09/24 04:25:40;;;;;;;10.82;5.95;;;13.30;99.90;;;;;;5075732;28;20505;-70
2021/09/24 04:28:06;;;;;;;10.50;6.05;;;13.30;99.90;;;;;;5071855;28;20378;-71
2021/09/24 04:30:32;;;;;;;13.05;6.55;;;13.30;99.90;;;;;;5071493;28;20039;-71
2021/09/24 04:32:58;;;;;;;11.73;6.57;;;13.20;99.90;;;;;;5071688;28;20052;-71
2021/09/24 04:35:24;;;;;;;10.52;6.75;;;13.20;99.90;;;;;;5072062;28;20137;-70
2021/09/24 04:37:53;;;;;;;12.57;6.90;;;13.20;99.90;;;;;;5079253;28;20035;-72
2021/09/24 04:40:19;;;;;;;11.50;6.13;;;13.30;99.90;;;;;;5093526;28;20131;-79
2021/09/24 04:42:46;;;;;;;12.85;6.30;;;13.20;99.90;;;;;;5091895;28;20055;-76
2021/09/24 04:45:12;;;;;;;9.77;6.30;;;13.30;99.90;;;;;;5091304;28;20032;-75
2021/09/24 04:47:38;;;;;;;8.18;6.15;;;13.30;99.90;;;;;;5091297;28;20073;-73
2021/09/24 04:50:06;;;;;;;12.73;6.20;;;13.30;99.90;;;;;;5091152;28;20031;-76
2021/09/24 04:52:32;;;;;;;12.82;7.05;;;13.30;99.90;;;;;;5091937;28;20453;-78
2021/09/24 04:54:57;;;;;;;10.05;6.70;;;13.40;99.90;;;;;;5092225;28;20119;-73
2021/09/24 04:57:23;;;;;;;9.95;6.80;;;13.40;99.90;;;;;;5092256;28;20493;-74
2021/09/24 04:59:49;;;;;;;12.95;7.38;;;13.40;99.90;;;;;;5092239;28;20052;-70
2021/09/24 05:02:17;;;;;;;25.80;8.15;;;13.50;99.90;;;;;;5046274;28;20152;-71
2021/09/24 05:04:44;;;;;;;14.77;7.40;;;13.40;99.90;;;;;;5090178;28;20044;-72
2021/09/24 05:07:10;;;;;;;12.38;7.43;;;13.40;99.90;;;;;;5087812;28;20119;-70
2021/09/24 05:09:36;;;;;;;10.80;7.20;;;13.40;99.90;;;;;;5071692;28;20382;-69
2021/09/24 05:12:03;;;;;;;14.95;7.72;;;13.40;99.90;;;;;;5072172;28;20055;-73
2021/09/24 05:14:30;;;;;;;15.63;7.95;;;13.50;99.90;;;;;;5082312;28;20032;-77
2021/09/24 05:16:56;;;;;;;12.45;7.03;;;13.60;99.90;;;;;;5090547;28;20097;-70
2021/09/24 05:19:21;;;;;;;12.05;7.40;;;13.70;99.90;;;;;;5091993;28;20419;-69
2021/09/24 05:21:47;;;;;;;11.80;6.78;;;13.80;99.90;;;;;;5074047;28;20032;-72
2021/09/24 05:24:13;;;;;;;9.95;6.63;;;13.80;99.90;;;;;;5091707;28;20061;-69
2021/09/24 05:26:40;;;;;;;13.73;6.68;;;13.60;99.90;;;;;;5092105;28;20028;-69
2021/09/24 05:29:06;;;;;;;9.23;5.60;;;13.50;99.90;;;;;;5091910;28;20369;-69
2021/09/24 05:31:33;;;;;;;10.38;6.90;;;13.50;99.90;;;;;;5092152;28;20475;-69
2021/09/24 05:34:02;;;;;;;12.27;5.85;;;13.50;99.90;;;;;;5091949;28;20488;-69
2021/09/24 05:36:28;;;;;;;14.63;7.47;;;13.40;99.90;;;;;;5081718;28;20032;-69
2021/09/24 05:38:54;;;;;;;9.90;6.03;;;13.40;99.90;;;;;;5073146;28;20515;-69
2021/09/24 05:41:20;;;;;;;11.68;6.07;;;13.40;99.90;;;;;;5079197;28;20032;-70
2021/09/24 05:43:49;;;;;;;8.95;5.80;;;13.40;99.90;;;;;;5088112;28;20063;-68
2021/09/24 05:46:16;;;;;;;9.95;5.88;;;13.40;99.90;;;;;;5067935;28;20557;-69
2021/09/24 05:48:43;;;;;;;11.98;6.97;;;13.40;99.90;;;;;;5092040;28;20036;-69
2021/09/24 05:51:12;;;;;;;8.23;5.90;;;13.40;99.90;;;;;;5091814;28;20039;-68
2021/09/24 05:53:38;;;;;;;9.63;6.57;;;13.40;99.90;;;;;;5091680;28;20111;-69
2021/09/24 05:56:05;;;;;;;10.07;5.95;;;13.30;99.90;;;;;;5087273;28;20024;-69
2021/09/24 05:58:31;;;;;;;13.93;6.70;;;13.20;99.90;;;;;;5092665;28;20063;-68
2021/09/24 06:00:57;;;;;;;13.23;6.30;;;13.30;99.90;;;;;;5077072;28;20077;-70
2021/09/24 06:03:23;;;;;;;8.45;6.03;;;13.40;99.90;;;;;;5095266;28;20040;-69
2021/09/24 06:05:49;;;;;;;16.75;6.10;;;13.30;99.90;;;;;;5093801;28;20039;-68
2021/09/24 06:08:15;;;;;;;10.75;6.03;;;13.40;99.90;;;;;;5094029;28;20028;-68
2021/09/24 06:10:42;;;;;;;8.95;5.72;;;13.40;99.90;;;;;;5095113;28;20032;-68
2021/09/24 06:13:11;;;;;;;12.63;5.93;;;13.40;99.90;;;;;;5095112;28;20025;-68
2021/09/24 06:15:38;;;;;;;8.50;5.90;;;13.40;99.90;;;;;;5094766;28;20044;-68
2021/09/24 06:18:05;;;;;;;13.27;6.85;;;13.30;99.90;;;;;;5095373;28;20024;-68
2021/09/24 06:20:31;;;;;;;12.13;6.55;;;13.30;99.90;;;;;;5094905;28;20092;-68
2021/09/24 06:22:57;;;;;;;10.95;6.10;;;13.30;99.90;;;;;;5093809;28;20120;-69
2021/09/24 06:25:24;;;;;;;12.98;6.88;;;13.40;99.90;;;;;;5095055;28;20114;-68
2021/09/24 06:27:50;;;;;;;12.18;6.70;;;13.40;99.90;;;;;;5094941;28;20150;-68
2021/09/24 06:30:22;;;;;;;13.85;6.93;;;13.50;99.90;;;;;;5093378;28;20509;-68
2021/09/24 06:32:48;;;;;;;;;;;13.50;99.90;;;;;;5095417;28;20024;-69
2021/09/24 06:35:15;;;;;;;18.27;6.57;;;13.60;99.90;;;;;;5093680;28;19912;-68
2021/09/24 06:37:41;;;;;;;13.75;5.95;;;13.60;99.90;;;;;;5094476;28;20028;-68
2021/09/24 06:40:09;;;;;;;10.50;6.65;;;13.60;99.90;;;;;;5094228;28;20115;-68
2021/09/24 06:42:36;;;;;;;11.23;6.70;;;13.80;99.90;;;;;;5094441;28;20032;-69
2021/09/24 06:45:08;;;;;;;11.57;6.60;;;13.80;99.90;;;;;;5093188;28;20028;-68
2021/09/24 06:47:34;;;;;;;14.80;7.20;;;13.80;99.90;;;;;;5093572;28;20024;-68
2021/09/24 06:50:00;;;;;;;15.05;6.65;;;13.80;99.90;;;;;;5094328;28;20119;-68
2021/09/24 06:52:26;;;;;;;10.48;6.88;;;13.80;99.90;;;;;;5094499;28;20040;-68
2021/09/24 06:54:54;;;;;;;12.07;6.72;;;13.90;99.90;;;;;;5087605;28;20028;-68
2021/09/24 06:57:20;;;;;;;15.50;6.90;;;14.20;99.90;;;;;;5075850;28;20377;-68
2021/09/24 06:59:45;;;;;;;10.10;6.03;;;14.10;99.90;;;;;;5084234;28;20040;-69
2021/09/24 07:02:12;;;;;;;10.93;6.75;;;14.20;99.90;;;;;;5083307;28;20649;-67
2021/09/24 07:04:37;;;;;;;9.00;5.88;;;14.20;99.90;;;;;;5088923;28;20037;-68
2021/09/24 07:07:03;;;;;;;11.63;6.68;;;14.40;99.90;;;;;;5079453;28;20384;-67
2021/09/24 07:09:29;;;;;;;14.68;6.45;;;14.30;99.90;;;;;;5084437;28;20024;-68
2021/09/24 07:11:55;;;;;;;11.73;6.35;;;14.40;99.90;;;;;;5093071;28;20036;-67
2021/09/24 07:14:21;;;;;;;10.13;6.35;;;14.40;99.90;;;;;;5093926;28;20051;-67
2021/09/24 07:16:49;;;;;;;12.55;6.68;;;14.40;99.90;;;;;;5093546;28;20067;-67
2021/09/24 07:19:16;;;;;;;14.57;7.28;;;14.50;99.90;;;;;;5094065;28;20024;-67
2021/09/24 07:21:43;;;;;;;13.20;6.47;;;14.50;99.90;;;;;;5093560;28;20074;-68
2021/09/24 07:24:09;;;;;;;13.32;6.40;;;14.60;99.90;;;;;;5093624;28;20059;-67
2021/09/24 07:26:35;;;;;;;13.57;6.38;;;14.70;99.90;;;;;;5093611;28;20451;-67
2021/09/24 07:29:01;;;;;;;12.30;6.57;;;14.70;99.90;;;;;;5093742;28;20051;-68
2021/09/24 07:31:27;;;;;;;12.02;7.55;;;14.70;99.90;;;;;;5092205;28;20143;-68
2021/09/24 07:33:54;;;;;;;13.68;6.80;;;14.70;99.90;;;;;;5092044;28;20020;-67
2021/09/24 07:36:20;;;;;;;11.82;6.25;;;14.80;99.90;;;;;;5092399;28;20028;-67
2021/09/24 07:38:49;;;;;;;13.77;5.78;;;14.80;99.90;;;;;;5092252;28;20036;-68
2021/09/24 07:41:18;;;;;;;12.35;6.43;;;14.90;99.90;;;;;;5093406;28;20074;-67
2021/09/24 07:43:46;;;;;;;11.40;7.18;;;14.90;99.90;;;;;;5093123;28;20500;-68
2021/09/24 07:46:12;;;;;;;10.68;6.68;;;15.00;99.90;;;;;;5091989;28;20028;-68
2021/09/24 07:48:41;;;;;;;12.32;6.90;;;15.00;99.90;;;;;;5093218;28;20030;-66
2021/09/24 07:51:07;;;;;;;15.50;7.25;;;15.10;99.90;;;;;;5089820;28;20115;-67
2021/09/24 07:53:32;;;;;;;12.57;6.43;;;15.10;99.90;;;;;;5084310;28;20166;-66
2021/09/24 07:55:58;;;;;;;10.57;6.35;;;15.30;99.90;;;;;;5076274;28;20542;-66
2021/09/24 07:58:24;;;;;;;11.43;6.32;;;15.30;99.90;;;;;;5072446;28;20044;-67
2021/09/24 08:00:50;;;;;;;11.40;5.82;;;15.40;99.90;;;;;;5091323;28;20028;-67
2021/09/24 08:03:15;;;;;;;18.65;7.03;;;15.40;99.90;;;;;;5092023;28;20089;-67
2021/09/24 08:05:41;;;;;;;9.70;6.40;;;15.30;99.90;;;;;;5092897;28;20032;-67
2021/09/24 08:08:07;;;;;;;11.75;7.07;;;15.30;99.90;;;;;;5091619;28;20031;-67
2021/09/24 08:10:33;;;;;;;11.27;6.47;;;15.30;99.90;;;;;;5092608;28;20411;-67
2021/09/24 08:12:59;;;;;;;10.27;5.97;;;15.40;99.90;;;;;;5093087;28;20079;-66
2021/09/24 08:15:25;;;;;;;12.43;6.28;;;15.60;99.90;;;;;;5092574;28;20035;-66
2021/09/24 08:17:52;;;;;;;11.43;7.38;;;15.50;99.90;;;;;;5091405;28;20032;-67
2021/09/24 08:20:18;;;;;;;12.95;6.70;;;15.60;99.90;;;;;;5092714;28;20081;-69
2021/09/24 08:22:44;;;;;;;10.88;5.82;;;15.80;99.90;;;;;;5091039;28;20072;-67
2021/09/24 08:25:14;;;;;;;10.40;6.18;;;16.00;99.90;;;;;;5091551;28;20032;-67
2021/09/24 08:27:41;;;;;;;11.63;6.20;;;16.10;99.90;;;;;;5093174;28;20035;-66
2021/09/24 08:30:13;;;;;;;10.82;5.78;;;16.40;99.90;;;;;;5092422;28;20632;-67
2021/09/24 08:32:40;;;;;;;9.73;5.93;;;16.40;99.90;;;;;;5091378;28;20473;-66
2021/09/24 08:35:09;;;;;;;8.07;5.40;;;16.60;99.90;;;;;;5091124;28;20040;-66
2021/09/24 08:37:38;;;;;;;11.98;6.20;;;16.80;99.90;;;;;;5092427;28;20028;-66
2021/09/24 08:40:06;;;;;;;11.90;6.55;;;16.60;99.90;;;;;;5091169;28;20032;-67
2021/09/24 08:42:33;;;;;;;8.73;5.25;;;16.80;99.90;;;;;;5092664;28;20028;-66
2021/09/24 08:44:59;;;;;;;12.40;5.15;;;16.90;99.90;;;;;;5092123;28;20132;-67
2021/09/24 08:47:27;;;;;;;14.23;5.70;;;16.90;99.90;;;;;;5092254;28;20039;-67
2021/09/24 08:49:53;;;;;;;9.57;5.35;;;16.90;99.90;;;;;;5092072;28;20038;-67
2021/09/24 08:52:19;;;;;;;17.67;6.10;;;16.90;99.90;;;;;;5092339;28;20032;-66
2021/09/24 08:54:45;;;;;;;9.10;5.53;;;16.90;99.90;;;;;;5092224;28;20330;-67
2021/09/24 08:57:16;;;;;;;12.52;6.47;;;17.00;99.90;;;;;;5092221;28;20031;-67
2021/09/24 08:59:42;;;;;;;12.07;5.78;;;17.00;99.90;;;;;;5090859;28;20032;-67
2021/09/24 09:02:09;;;;;;;12.93;6.30;;;17.10;99.90;;;;;;5091810;28;20111;-67
2021/09/24 09:04:42;;;;;;;13.40;6.00;;;17.20;99.90;;;;;;5090839;28;20074;-66
2021/09/24 09:07:15;;;;;;;9.60;5.85;;;17.30;99.90;;;;;;5090633;28;20036;-67
2021/09/24 09:09:44;;;;;;;8.88;5.40;;;17.50;99.90;;;;;;5091110;28;20028;-67
2021/09/24 09:12:16;;;;;;;9.48;5.53;;;17.70;99.90;;;;;;5092272;28;20032;-67
2021/09/24 09:15:13;;;;;;;8.52;5.50;;;17.80;99.90;;;;;;5090854;28;20024;-67
2021/09/24 09:17:50;;;;;;;9.40;5.95;;;17.90;99.90;;;;;;5090666;28;20400;-67
2021/09/24 09:20:19;;;;;;;9.52;5.53;;;18.10;99.90;;;;;;5090446;28;20035;-67
2021/09/24 09:22:52;;;;;;;13.15;5.25;;;18.30;99.90;;;;;;5091864;28;20054;-67
2021/09/24 09:25:23;;;;;;;13.30;5.75;;;18.40;99.90;;;;;;5091872;28;20032;-67
2021/09/24 09:27:52;;;;;;;10.38;5.05;;;18.50;99.90;;;;;;5091608;28;20046;-67
2021/09/24 09:30:20;;;;;;;11.38;5.50;;;18.70;99.90;;;;;;5091107;28;20056;-67
2021/09/24 09:33:05;;;;;;;7.95;4.93;;;18.70;99.90;;;;;;5091629;28;20032;-67
2021/09/24 09:35:51;;;;;;;8.45;5.75;;;18.80;99.90;;;;;;5094692;28;20028;-67
2021/09/24 09:38:36;;;;;;;10.80;5.10;;;19.00;99.90;;;;;;5078808;28;20040;-67
2021/09/24 09:41:13;;;;;;;11.18;5.18;;;19.20;99.90;;;;;;5094204;28;20054;-67
2021/09/24 09:43:59;;;;;;;10.38;5.20;;;19.50;99.90;;;;;;5095611;28;20475;-67
2021/09/24 09:46:35;;;;;;;8.60;4.72;;;19.70;99.90;;;;;;5094230;28;20192;-67
2021/09/24 09:49:10;;;;;;;7.40;4.30;;;19.80;99.90;;;;;;5092980;28;20511;-66
2021/09/24 09:51:40;;;;;;;11.32;5.53;;;19.90;99.90;;;;;;5094654;28;20047;-67
2021/09/24 09:54:24;;;;;;;8.33;4.77;;;20.10;99.90;;;;;;5092830;28;20047;-66
2021/09/24 09:56:51;;;;;;;8.50;5.20;;;20.10;99.90;;;;;;5092251;28;20032;-67
2021/09/24 09:59:31;;;;;;;9.05;4.72;;;20.20;99.90;;;;;;5087392;28;20040;-65
2021/09/24 10:02:31;;;;;;;7.55;5.20;;;20.20;99.90;;;;;;5091389;28;20118;-70
2021/09/24 10:04:58;;;;;;;7.93;5.10;;;20.30;99.90;;;;;;5094962;28;20032;-67
2021/09/24 10:07:29;;;;;;;8.18;5.10;;;20.60;99.90;;;;;;5093840;28;20050;-66
2021/09/24 10:10:16;;;;;;;6.80;3.92;;;20.80;99.90;;;;;;5091808;28;20040;-66
2021/09/24 10:12:44;;;;;;;6.85;3.88;;;20.60;99.90;;;;;;5093790;28;20427;-67
2021/09/24 10:15:17;;;;;;;5.63;3.60;;;20.50;99.90;;;;;;5084441;28;20033;-70
2021/09/24 10:17:43;;;;;;;6.25;4.00;;;20.60;99.90;;;;;;5087500;28;20048;-71
2021/09/24 10:20:12;;;;;;;7.45;4.03;;;20.60;99.90;;;;;;5074556;28;20403;-69
2021/09/24 10:22:38;;;;;;;6.85;4.30;;;20.70;99.90;;;;;;5073265;28;20508;-68
2021/09/24 10:25:06;;;;;;;6.82;4.00;;;20.80;99.90;;;;;;5076568;28;20158;-68
2021/09/24 10:27:37;;;;;;;8.68;4.35;;;20.80;99.90;;;;;;5083941;28;20028;-70
2021/09/24 10:30:25;;;;;;;6.57;4.15;;;20.80;99.90;;;;;;5093346;28;20028;-69
2021/09/24 10:33:07;;;;;;;7.75;3.88;;;20.90;99.90;;;;;;5093186;28;20046;-69
2021/09/24 10:36:02;;;;;;;9.27;4.00;;;20.90;99.90;;;;;;5094589;28;20039;-69
2021/09/24 10:38:31;;;;;;;7.45;3.78;;;21.40;99.90;;;;;;5085503;28;20511;-67
2021/09/24 10:41:13;;;;;;;8.85;3.90;;;21.50;99.90;;;;;;5093195;28;20381;-69
2021/09/24 10:43:47;;;;;;;7.07;3.72;;;21.50;99.90;;;;;;5090238;28;20021;-68
2021/09/24 10:46:25;;;;;;;5.85;3.53;;;21.50;99.90;;;;;;5092878;28;20046;-69
2021/09/24 10:49:16;;;;;;;8.35;3.38;;;21.20;99.90;;;;;;5094200;28;20102;-68
2021/09/24 10:52:11;;;;;;;6.05;3.20;;;21.50;99.90;;;;;;5094645;28;20376;-68
2021/09/24 10:54:59;;;;;;;7.47;3.50;;;21.50;99.90;;;;;;5088281;28;20493;-69
2021/09/24 10:57:50;;;;;;;5.55;3.22;;;21.60;99.90;;;;;;5076421;28;20043;-69
2021/09/24 11:00:25;;;;;;;5.07;2.70;;;21.50;99.90;;;;;;5093408;28;20038;-69
2021/09/24 11:03:08;;;;;;;7.15;3.00;;;21.40;99.90;;;;;;5093819;28;20403;-70
2021/09/24 11:06:11;;;;;;;6.63;2.92;;;21.20;99.90;;;;;;5092796;28;20039;-69
2021/09/24 11:08:43;;;;;;;9.20;2.72;;;21.20;99.90;;;;;;5082775;28;20535;-68
2021/09/24 11:11:22;;;;;;;5.55;3.13;;;21.10;99.90;;;;;;5093997;28;20044;-68
2021/09/24 11:13:53;;;;;;;4.68;2.70;;;21.30;99.90;;;;;;5077902;28;20162;-69
2021/09/24 11:16:44;;;;;;;5.50;2.78;;;21.50;99.90;;;;;;5086563;28;20060;-69
2021/09/24 11:19:49;;;;;;;8.48;2.75;;;21.60;99.90;;;;;;5079029;28;20047;-70
2021/09/24 11:22:23;;;;;;;5.93;2.47;;;21.50;99.90;;;;;;5073877;28;20020;-68
2021/09/24 11:25:10;;;;;;;5.07;2.10;;;21.70;99.90;;;;;;5082053;28;20036;-69
2021/09/24 11:27:45;;;;;;;3.80;1.63;;;21.80;99.90;;;;;;5081014;28;20116;-68
2021/09/24 11:30:11;;;;;;;6.07;2.10;;;21.80;99.90;;;;;;5073056;28;20040;-69
2021/09/24 11:32:41;;;;;;;4.20;2.28;;;22.10;99.90;;;;;;5073304;28;20119;-69
2021/09/24 11:35:12;;;;;;;5.32;2.40;;;22.30;99.90;;;;;;5073208;28;20392;-69
2021/09/24 11:37:41;;;;;;;5.75;2.58;;;22.30;99.90;;;;;;5073249;28;20032;-69
2021/09/24 11:40:20;;;;;;;6.97;2.35;;;22.40;99.90;;;;;;5071880;28;20037;-69
2021/09/24 11:42:52;;;;;;;3.92;1.92;;;22.60;99.90;;;;;;5072945;28;20531;-69
2021/09/24 11:45:29;;;;;;;6.45;2.25;;;22.80;99.90;;;;;;5072739;28;20033;-69
2021/09/24 11:48:08;;;;;;;5.18;2.33;;;22.90;99.90;;;;;;5074105;28;20479;-69
2021/09/24 11:50:37;;;;;;;4.18;2.10;;;22.60;99.90;;;;;;5085495;28;20036;-69
2021/09/24 11:53:12;;;;;;;3.10;1.98;;;22.80;99.90;;;;;;5072738;28;20036;-69
2021/09/24 11:55:44;;;;;;;3.15;1.67;;;22.60;99.90;;;;;;5071935;28;20125;-69
2021/09/24 11:58:25;;;;;;;5.07;2.00;;;22.50;99.90;;;;;;5071120;28;20350;-70
2021/09/24 12:00:54;;;;;;;4.60;1.92;;;22.50;99.90;;;;;;5073065;28;20036;-68
2021/09/24 12:03:33;;;;;;;3.10;1.60;;;22.30;99.90;;;;;;5072593;28;20043;-68
2021/09/24 12:06:12;;;;;;;4.45;1.80;;;22.10;99.90;;;;;;5088071;28;20028;-69
2021/09/24 12:08:46;;;;;;;4.45;1.63;;;22.10;99.90;;;;;;5087992;28;20114;-68
2021/09/24 12:11:23;;;;;;;2.38;1.08;;;22.00;99.90;;;;;;5091500;28;20425;-68
2021/09/24 12:14:02;;;;;;;3.65;1.55;;;22.00;99.90;;;;;;5092738;28;20497;-69
2021/09/24 12:16:37;;;;;;;3.30;1.50;;;22.00;99.90;;;;;;5089372;28;20059;-68
2021/09/24 12:19:05;;;;;;;3.38;1.27;;;22.10;99.80;;;;;;5092705;28;20039;-69
2021/09/24 12:21:41;;;;;;;4.30;1.67;;;22.20;99.40;;;;;;5092413;28;20028;-68
2021/09/24 12:24:17;;;;;;;6.15;0.95;;;22.30;98.90;;;;;;5091084;28;20036;-69
2021/09/24 12:26:47;;;;;;;2.92;1.10;;;22.70;98.80;;;;;;5091536;28;20119;-67
2021/09/24 12:29:26;;;;;;;2.70;1.27;;;24.10;96.70;;;;;;5084437;28;20048;-69
2021/09/24 12:32:04;;;;;;;2.55;1.05;;;24.50;95.50;;;;;;5082126;28;20416;-68
2021/09/24 12:34:48;;;;;;;2.88;1.20;;;25.00;95.20;;;;;;5086585;28;20032;-68
2021/09/24 12:37:33;;;;;;;3.40;1.17;;;24.50;95.40;;;;;;5087318;28;20034;-68
2021/09/24 12:40:05;;;;;;;7.18;1.58;;;24.70;94.90;;;;;;5091343;28;20024;-69
2021/09/24 12:42:59;;;;;;;3.67;1.50;;;24.50;95.00;;;;;;5092605;28;20036;-69
2021/09/24 12:45:35;;;;;;;3.53;1.20;;;24.00;95.50;;;;;;5086320;28;20033;-67
2021/09/24 12:48:15;;;;;;;2.85;1.10;;;23.80;96.00;;;;;;5080299;28;20035;-66
2021/09/24 12:50:43;;;;;;;2.63;1.45;;;23.70;96.20;;;;;;5072255;28;20032;-66
2021/09/24 12:53:09;;;;;;;2.95;1.60;;;23.50;96.30;;;;;;5071985;28;20025;-65
2021/09/24 12:55:36;;;;;;;3.38;1.45;;;23.30;96.80;;;;;;5072017;28;20036;-66